createdAt,value
2018-07-23T09:18:06.742Z,46.20
2018-07-23T09:20:34.944Z,45.87
2018-07-23T09:23:03.150Z,40.50
2018-07-23T09:25:36.653Z,33.63
2018-07-23T09:28:04.859Z,35.50
2018-07-23T09:30:38.517Z,30.50
2018-07-23T09:33:06.720Z,27.23
2018-07-23T09:35:34.917Z,32.70
2018-07-23T09:38:03.106Z,34.63
2018-07-23T09:40:31.330Z,30.57
2018-07-23T09:42:59.521Z,29.90
2018-07-23T17:57:18.030Z,12.18
2018-07-23T17:59:46.214Z,10.40
2018-07-23T18:02:14.400Z,11.45
2018-07-23T18:04:42.590Z,9.73
2018-07-23T18:07:10.772Z,9.18
2018-07-23T18:09:38.937Z,9.48
2018-07-23T18:12:07.818Z,12.73
2018-07-23T18:14:36.023Z,9.73
2018-07-23T18:17:04.210Z,11.90
2018-07-23T18:19:32.413Z,9.57
2018-07-23T18:22:00.589Z,8.88
2018-07-23T18:24:28.797Z,9.75
2018-07-23T18:26:56.997Z,11.78
2018-07-23T18:29:25.199Z,9.40
2018-07-23T18:31:53.398Z,10.68
2018-07-23T18:34:21.604Z,13.40
2018-07-23T18:36:49.833Z,10.15
2018-07-23T18:39:18.026Z,10.53
2018-07-23T18:41:46.223Z,9.60
2018-07-23T18:44:14.412Z,14.10
2018-07-23T18:46:42.634Z,10.10
2018-07-23T18:49:26.601Z,9.80
2018-07-23T18:51:55.214Z,11.22
2018-07-23T18:54:24.717Z,10.33
2018-07-23T18:56:54.250Z,10.08
2018-07-23T18:59:22.428Z,10.18
2018-07-23T19:01:51.528Z,10.30
2018-07-23T19:04:19.776Z,20.15
2018-07-23T19:06:48.429Z,11.25
2018-07-23T19:09:20.794Z,13.88
2018-07-23T19:11:50.102Z,16.27
2018-07-23T19:14:18.597Z,10.53
2018-07-23T19:16:47.257Z,10.90
2018-07-23T19:19:15.432Z,12.80
2018-07-23T19:21:43.605Z,13.72
2018-07-23T19:24:11.797Z,11.88
2018-07-23T19:26:39.986Z,12.60
2018-07-23T19:29:08.169Z,11.70
2018-07-23T19:31:36.352Z,12.55
2018-07-23T19:34:05.128Z,12.47
2018-07-23T19:36:33.317Z,11.70
2018-07-23T19:39:01.408Z,12.00
2018-07-23T19:41:30.099Z,13.60
2018-07-23T19:43:58.273Z,12.47
2018-07-23T19:46:26.489Z,15.90
2018-07-23T19:48:54.694Z,12.70
2018-07-23T19:51:22.906Z,12.63
2018-07-23T19:53:51.086Z,16.60
2018-07-23T19:56:19.284Z,13.10
2018-07-23T19:58:47.454Z,14.60
2018-07-23T20:01:15.670Z,12.60
2018-07-23T20:03:43.846Z,12.58
2018-07-23T20:06:12.021Z,12.50
2018-07-23T20:08:40.205Z,12.03
2018-07-23T20:11:08.414Z,12.90
2018-07-23T20:13:36.614Z,12.50
2018-07-23T20:16:04.819Z,16.20
2018-07-23T20:18:33.015Z,12.35
2018-07-23T20:21:01.211Z,18.30
2018-07-23T20:23:29.446Z,14.50
2018-07-23T20:25:57.661Z,13.10
2018-07-23T20:28:25.901Z,13.10
2018-07-23T20:30:54.100Z,14.78
2018-07-23T20:33:22.313Z,12.68
2018-07-23T20:35:50.515Z,13.33
2018-07-23T20:38:18.710Z,17.42
2018-07-23T20:40:46.925Z,13.62
2018-07-23T20:43:15.129Z,13.00
2018-07-23T20:45:43.371Z,13.45
2018-07-23T20:48:11.521Z,12.80
2018-07-23T20:50:39.734Z,14.50
2018-07-23T20:53:07.957Z,12.55
2018-07-23T20:55:36.313Z,18.07
2018-07-23T20:58:04.520Z,12.40
2018-07-23T21:00:32.711Z,13.15
2018-07-23T21:03:00.928Z,12.60
2018-07-23T21:05:29.121Z,15.23
2018-07-23T21:07:57.654Z,13.10
2018-07-23T21:10:25.855Z,12.68
2018-07-23T21:12:54.058Z,13.50
2018-07-23T21:15:22.285Z,16.40
2018-07-23T21:17:50.502Z,14.53
2018-07-23T21:20:18.697Z,14.40
2018-07-23T21:22:46.912Z,15.03
2018-07-23T21:25:15.153Z,19.82
2018-07-23T21:27:43.387Z,12.50
2018-07-23T21:30:11.537Z,12.53
2018-07-23T21:32:39.730Z,13.80
2018-07-23T21:35:07.932Z,13.53
2018-07-23T21:37:36.147Z,14.55
2018-07-23T21:40:04.802Z,14.35
2018-07-23T21:42:33.022Z,13.40
2018-07-23T21:45:01.205Z,14.33
2018-07-23T21:47:29.425Z,18.27
2018-07-23T21:49:57.628Z,13.65
2018-07-23T21:52:25.868Z,13.13
2018-07-23T21:54:54.073Z,13.00
2018-07-23T21:57:22.269Z,13.43
2018-07-23T21:59:50.493Z,13.20
2018-07-23T22:02:18.709Z,11.75
2018-07-23T22:04:46.933Z,15.08
2018-07-23T22:07:15.124Z,14.75
2018-07-23T22:09:43.357Z,13.60
2018-07-23T22:12:11.530Z,13.40
2018-07-23T22:14:39.730Z,14.98
2018-07-23T22:17:07.917Z,14.25
2018-07-23T22:19:36.122Z,14.35
2018-07-23T22:22:04.334Z,15.40
2018-07-23T22:24:32.519Z,15.08
2018-07-23T22:29:42.982Z,15.40
2018-07-23T22:32:11.248Z,15.25
2018-07-23T22:34:39.441Z,16.93
2018-07-23T22:37:07.615Z,14.80
2018-07-23T22:39:35.834Z,17.95
2018-07-23T22:42:04.065Z,15.65
2018-07-23T22:44:32.234Z,14.83
2018-07-23T22:47:00.416Z,15.63
2018-07-23T22:49:28.602Z,15.80
2018-07-23T22:51:56.798Z,14.73
2018-07-23T22:54:25.010Z,16.97
2018-07-23T22:56:53.169Z,14.43
2018-07-23T22:59:21.362Z,20.10
2018-07-23T23:01:49.557Z,15.30
2018-07-23T23:04:17.773Z,15.45
2018-07-23T23:06:45.969Z,14.78
2018-07-23T23:09:14.186Z,14.85
2018-07-23T23:11:42.377Z,13.97
2018-07-23T23:14:10.574Z,14.38
2018-07-23T23:16:38.774Z,18.48
2018-07-23T23:19:07.017Z,17.65
2018-07-23T23:21:35.169Z,15.10
2018-07-23T23:24:03.401Z,16.27
2018-07-23T23:26:31.612Z,20.72
2018-07-23T23:28:59.822Z,13.25
2018-07-23T23:31:28.001Z,14.58
2018-07-23T23:33:56.182Z,16.42
2018-07-23T23:36:24.366Z,14.67
2018-07-23T23:38:52.554Z,15.68
2018-07-23T23:41:20.778Z,16.00
2018-07-23T23:43:48.974Z,14.90
2018-07-23T23:46:17.156Z,16.77
2018-07-23T23:48:45.362Z,15.23
2018-07-23T23:51:13.542Z,16.87
2018-07-23T23:53:41.751Z,16.40
2018-07-23T23:56:09.945Z,14.93
2018-07-23T23:58:38.130Z,16.80
